Etusivu
METAR-TAF:

METAR-TAF

Lentoasemat :

Delta, Utah, Yhdysvallat

Leveyspiiri: 39-22-50N, Pituuspiiri: 112-30-28W, korkeus merenpinnasta: 1451 m

Tämänhetkinen sää

Tämä raportti tehtiin 10 minuuttia sitten, kello 10.55 UTC
Tuuli 9 kn etelästä
Lämpötila 9°C
Kosteus 57%
Ilmanpaine 1012 hPa
Näkyvyys: 16.1 km
selkeää

METAR: KDTA 201055Z AUTO 19009KT 10SM CLR 09/01 A2989 RMK AO1

Aika: 05:05 (11:05 UTC)


TAF: puuttuu

Säähavainnot ja -ennusteet yli 4000 lentoasemalta (METAR- ja TAF-raportit).

Käytössä olevat sääasemat on merkitty karttaan keltaisilla ja punaisilla pisteillä.

Aseta hiiri pisteen päälle nähdäksesi sääaseman nimen.

Klikkaa sitten nähdäksesi säähavainnot ja -ennusteet.

Kartan vaihtaminen: klikkaa mustalla rastilla varustettuja vihreitä pisteitä, niin voit zoomata sisään; viivalla varustettua vihreää pistettä, niin voit zoomata ulos tai vihreitä nuolia, niin pääset viereisille kartoille.


METAR-TAF: